createdAt,value
2019-05-19T16:49:21.296Z,4.83
2019-05-19T16:51:53.759Z,5.47
2019-05-19T16:54:30.968Z,4.97
2019-05-19T16:57:02.800Z,4.57
2019-05-19T16:59:34.388Z,4.33
2019-05-19T17:02:07.176Z,3.90
2019-05-19T17:04:38.734Z,4.70
2019-05-19T17:07:10.489Z,4.20
2019-05-19T17:09:43.469Z,4.50
2019-05-19T17:12:16.191Z,4.70
2019-05-19T17:14:49.204Z,4.40
2019-05-19T17:17:22.002Z,4.10
2019-05-19T17:19:54.092Z,4.87
2019-05-19T17:22:25.872Z,4.73
2019-05-19T17:25:00.440Z,4.43
2019-05-19T17:27:34.038Z,4.00
2019-05-19T17:30:06.485Z,4.57
2019-05-19T17:32:38.499Z,4.53
2019-05-19T17:35:11.626Z,5.23
2019-05-19T17:37:43.239Z,5.40
2019-05-19T17:40:18.246Z,4.53
2019-05-19T17:42:50.341Z,4.60
2019-05-19T17:45:22.453Z,4.95
2019-05-19T17:48:08.804Z,5.50
2019-05-19T17:50:33.676Z,5.30
2019-05-19T17:53:06.868Z,5.40
2019-05-19T17:55:39.022Z,5.83
2019-05-19T17:58:10.624Z,5.62
2019-05-19T18:00:44.178Z,6.40
2019-05-19T18:03:18.102Z,5.78
2019-05-19T18:05:50.346Z,5.50
2019-05-19T18:08:22.349Z,5.80
2019-05-19T18:10:54.148Z,5.73
2019-05-19T18:13:25.970Z,5.70
2019-05-19T18:15:57.697Z,7.00
2019-05-19T18:18:29.826Z,11.87
2019-05-19T18:21:01.933Z,6.03
2019-05-19T18:23:34.869Z,5.73
2019-05-19T18:26:07.480Z,6.23
2019-05-19T18:28:39.515Z,6.43
2019-05-19T18:31:11.607Z,7.03
2019-05-19T18:33:45.523Z,6.10
2019-05-19T18:36:18.779Z,6.20
2019-05-19T18:38:50.439Z,7.07
2019-05-19T18:41:22.383Z,6.00
2019-05-19T18:43:57.531Z,6.77
2019-05-19T18:46:29.736Z,7.67
2019-05-19T18:49:02.442Z,6.67
2019-05-19T18:51:35.554Z,6.80
2019-05-19T18:54:08.920Z,6.67
2019-05-19T18:56:43.159Z,7.20
2019-05-19T18:59:16.885Z,7.43
2019-05-19T19:01:48.710Z,7.57
2019-05-19T19:04:20.796Z,8.25
2019-05-19T19:06:53.820Z,9.10
2019-05-19T19:09:25.700Z,8.20
2019-05-19T19:11:57.590Z,8.40
2019-05-19T19:14:29.425Z,8.93
2019-05-19T19:17:01.553Z,8.77
2019-05-19T19:19:33.305Z,8.67
2019-05-19T19:22:06.647Z,8.60
2019-05-19T19:24:38.767Z,8.60
2019-05-19T19:27:10.899Z,8.20
2019-05-19T19:29:42.779Z,8.20
2019-05-19T19:32:14.584Z,8.88
2019-05-19T19:34:47.239Z,8.80
2019-05-19T19:37:19.014Z,7.80
2019-05-19T19:39:51.235Z,8.53
2019-05-19T19:42:23.314Z,9.18
2019-05-19T19:44:55.555Z,9.30
2019-05-19T19:47:27.396Z,9.17
2019-05-19T19:49:59.289Z,8.73
2019-05-19T19:52:30.991Z,9.33
2019-05-19T19:55:02.972Z,10.00
2019-05-19T19:57:35.931Z,10.43
2019-05-19T20:00:18.060Z,9.83
2019-05-19T20:02:44.214Z,9.53
2019-05-19T20:05:17.841Z,10.38
2019-05-19T20:07:51.756Z,9.80
2019-05-19T20:10:26.286Z,13.70
2019-05-19T20:13:00.448Z,10.53
2019-05-19T20:15:32.516Z,10.77
2019-05-19T20:18:04.881Z,11.30
2019-05-19T20:20:38.361Z,10.43
2019-05-19T20:23:12.136Z,10.80
2019-05-19T20:25:44.744Z,10.80
2019-05-19T20:28:17.916Z,10.75
2019-05-19T20:30:51.986Z,11.20
2019-05-19T20:33:24.753Z,11.50
2019-05-19T20:35:58.584Z,10.38
2019-05-19T20:38:30.813Z,11.70
2019-05-19T20:41:03.140Z,12.83
2019-05-19T20:43:34.843Z,11.87
2019-05-19T20:46:06.781Z,12.27
2019-05-19T20:48:39.106Z,12.17
2019-05-19T20:51:13.189Z,12.85
2019-05-19T20:53:44.954Z,12.43
2019-05-19T20:56:18.830Z,12.70
2019-05-19T20:58:50.453Z,12.50
2019-05-19T21:01:26.600Z,13.47
2019-05-19T21:03:58.447Z,13.23
2019-05-19T21:06:33.217Z,13.40
2019-05-19T21:09:05.833Z,13.73
2019-05-19T21:11:38.751Z,13.50
2019-05-19T21:14:12.895Z,14.00
2019-05-19T21:16:46.904Z,13.90
2019-05-19T21:19:21.952Z,13.80
2019-05-19T21:21:56.372Z,13.95
2019-05-19T21:24:30.744Z,14.47
2019-05-19T21:27:04.560Z,13.47
2019-05-19T21:29:37.291Z,14.17
2019-05-19T21:32:08.973Z,14.57
2019-05-19T21:34:40.984Z,14.53
2019-05-19T21:37:12.797Z,14.70
2019-05-19T21:39:44.588Z,15.33
2019-05-19T21:42:18.271Z,15.65
2019-05-19T21:44:52.300Z,15.32
2019-05-19T21:47:27.611Z,14.97
2019-05-19T21:49:59.327Z,16.03
2019-05-19T21:52:31.441Z,14.83
2019-05-19T21:55:05.067Z,15.50
2019-05-19T21:57:36.775Z,14.90
2019-05-19T22:00:14.584Z,15.13
2019-05-19T22:02:49.294Z,14.30
2019-05-19T22:05:24.258Z,14.55
2019-05-19T22:08:03.466Z,14.80
2019-05-19T22:10:37.998Z,14.70
2019-05-19T22:13:12.671Z,13.67
2019-05-19T22:15:45.817Z,13.43
2019-05-19T22:18:19.280Z,14.30
2019-05-19T22:20:51.545Z,14.03
2019-05-19T22:23:24.116Z,14.00
2019-05-19T22:25:56.724Z,14.30
2019-05-19T22:28:30.754Z,13.73
2019-05-19T22:31:03.013Z,13.60
2019-05-19T22:33:36.055Z,13.28
2019-05-19T22:36:08.186Z,13.00
2019-05-19T22:38:41.318Z,13.83
2019-05-19T22:41:14.641Z,13.32
2019-05-19T22:43:46.861Z,13.57
2019-05-19T22:46:19.544Z,14.63
2019-05-19T22:48:51.703Z,14.67
2019-05-19T22:51:26.660Z,17.27
2019-05-19T22:53:58.803Z,14.60
2019-05-19T22:56:35.449Z,13.60
2019-05-19T22:59:19.244Z,14.40
2019-05-19T23:01:51.287Z,15.00
2019-05-19T23:04:16.618Z,14.37
2019-05-19T23:06:50.679Z,13.83
2019-05-19T23:09:23.991Z,14.47
2019-05-19T23:11:57.285Z,15.03
2019-05-19T23:14:31.797Z,14.43
2019-05-19T23:17:04.246Z,15.07
2019-05-19T23:19:39.426Z,14.07
2019-05-19T23:22:13.740Z,13.20
2019-05-19T23:24:45.816Z,12.70
2019-05-19T23:27:17.837Z,13.08
2019-05-19T23:29:50.718Z,13.33
2019-05-19T23:32:24.654Z,12.47
2019-05-19T23:34:57.523Z,12.90
2019-05-19T23:37:29.922Z,11.67
2019-05-19T23:40:02.157Z,12.57
2019-05-19T23:42:36.547Z,12.57
2019-05-19T23:45:08.728Z,12.93
2019-05-19T23:47:40.773Z,12.90
2019-05-19T23:50:14.169Z,11.80
2019-05-19T23:52:45.873Z,11.97
2019-05-19T23:55:20.233Z,13.17
2019-05-19T23:57:52.890Z,12.70
